createdAt,value
2016-09-29T00:00:32.291Z,1019.46
2016-09-29T00:01:32.247Z,1019.42
2016-09-29T00:02:32.214Z,1019.44
2016-09-29T00:03:32.356Z,1019.42
2016-09-29T00:04:32.303Z,1019.4
2016-09-29T00:05:32.061Z,1019.4
2016-09-29T00:06:32.009Z,1019.38
2016-09-29T00:07:31.963Z,1019.38
2016-09-29T00:08:31.924Z,1019.34
2016-09-29T00:09:31.875Z,1019.33
2016-09-29T00:10:31.828Z,1019.32
2016-09-29T00:11:31.776Z,1019.35
2016-09-29T00:12:31.732Z,1019.33
2016-09-29T00:13:31.685Z,1019.33
2016-09-29T00:14:31.641Z,1019.31
2016-09-29T00:15:31.594Z,1019.3
2016-09-29T00:16:31.542Z,1019.33
2016-09-29T00:17:31.496Z,1019.31
2016-09-29T00:18:31.452Z,1019.28
2016-09-29T00:19:31.401Z,1019.3
2016-09-29T00:20:31.358Z,1019.27
2016-09-29T00:21:31.308Z,1019.27
2016-09-29T00:22:31.261Z,1019.21
2016-09-29T00:23:31.211Z,1019.18
2016-09-29T00:24:31.169Z,1019.18
2016-09-29T00:25:31.119Z,1019.16
2016-09-29T00:26:31.078Z,1019.18
2016-09-29T00:27:31.030Z,1019.1
2016-09-29T00:28:30.981Z,1019.13
2016-09-29T00:29:30.936Z,1019.1
2016-09-29T00:30:30.887Z,1019.11
2016-09-29T00:31:30.845Z,1019.1
2016-09-29T00:32:30.797Z,1019.14
2016-09-29T00:33:30.751Z,1019.16
2016-09-29T00:34:30.694Z,1019.18
2016-09-29T00:35:30.658Z,1019.18
2016-09-29T00:36:30.607Z,1019.21
2016-09-29T00:37:30.559Z,1019.19
2016-09-29T00:38:30.509Z,1019.23
2016-09-29T00:39:30.469Z,1019.23
2016-09-29T00:40:30.413Z,1019.24
2016-09-29T00:41:30.376Z,1019.17
2016-09-29T00:42:30.322Z,1019.16
2016-09-29T00:43:30.276Z,1019.12
2016-09-29T00:44:30.224Z,1019.07
2016-09-29T00:45:30.381Z,1019.05
2016-09-29T00:46:30.132Z,1019.07
2016-09-29T00:47:30.087Z,1019.09
2016-09-29T00:48:30.045Z,1019.11
2016-09-29T00:49:29.990Z,1019.14
2016-09-29T00:50:29.945Z,1019.13
2016-09-29T00:51:29.902Z,1019.09
2016-09-29T00:52:29.859Z,1019.11
2016-09-29T00:53:29.801Z,1019.09
2016-09-29T00:54:29.762Z,1019.14
2016-09-29T00:55:29.707Z,1019.13
2016-09-29T00:56:29.669Z,1019.13
2016-09-29T00:57:29.612Z,1019.15
2016-09-29T00:58:29.574Z,1019.13
2016-09-29T00:59:29.525Z,1019.11
2016-09-29T01:00:29.479Z,1019.12
2016-09-29T01:01:29.424Z,1019.13
2016-09-29T01:02:29.385Z,1019.14
2016-09-29T01:03:29.337Z,1019.15
2016-09-29T01:04:29.295Z,1019.13
2016-09-29T01:05:29.247Z,1019.13
2016-09-29T01:06:29.208Z,1019.13
2016-09-29T01:07:29.215Z,1019.11
2016-09-29T01:08:29.113Z,1019.11
2016-09-29T01:09:29.069Z,1019.1
2016-09-29T01:10:29.010Z,1019.14
2016-09-29T01:11:29.179Z,1019.09
2016-09-29T01:12:28.916Z,1019.07
2016-09-29T01:13:28.867Z,1019.07
2016-09-29T01:14:28.819Z,1019.03
2016-09-29T01:15:28.781Z,1019.05
2016-09-29T01:16:28.728Z,1019.05
2016-09-29T01:17:28.683Z,1019.05
2016-09-29T01:18:28.634Z,1019.03
2016-09-29T01:19:28.593Z,1019.04
2016-09-29T01:20:28.547Z,1019.05
2016-09-29T01:21:28.499Z,1019.03
2016-09-29T01:22:28.443Z,1019
2016-09-29T01:23:28.407Z,1019.03
2016-09-29T01:24:28.356Z,1018.96
2016-09-29T01:25:28.303Z,1018.97
2016-09-29T01:26:28.259Z,1018.95
2016-09-29T01:27:28.209Z,1018.97
2016-09-29T01:28:28.163Z,1018.9
2016-09-29T01:29:28.117Z,1018.9
2016-09-29T01:30:28.067Z,1018.9
2016-09-29T01:31:28.021Z,1018.92
2016-09-29T01:32:27.972Z,1018.88
2016-09-29T01:33:27.924Z,1018.88
2016-09-29T01:34:27.880Z,1018.88
2016-09-29T01:35:27.830Z,1018.89
2016-09-29T01:36:27.793Z,1018.9
2016-09-29T01:37:27.741Z,1018.82
2016-09-29T01:38:27.698Z,1018.8
2016-09-29T01:39:27.648Z,1018.79
2016-09-29T01:40:27.801Z,1018.83
2016-09-29T01:41:27.749Z,1018.79
2016-09-29T01:42:27.709Z,1018.79
2016-09-29T01:43:27.465Z,1018.76
2016-09-29T01:44:27.411Z,1018.74
2016-09-29T01:45:27.367Z,1018.71
2016-09-29T01:46:27.327Z,1018.72
2016-09-29T01:47:27.268Z,1018.7
2016-09-29T01:48:27.231Z,1018.67
2016-09-29T01:49:27.180Z,1018.7
2016-09-29T01:50:27.127Z,1018.7
2016-09-29T01:51:27.088Z,1018.67
2016-09-29T01:52:27.038Z,1018.71
2016-09-29T01:53:26.991Z,1018.73
2016-09-29T01:54:26.962Z,1018.69
2016-09-29T01:55:26.897Z,1018.65
2016-09-29T01:56:26.849Z,1018.67
2016-09-29T01:57:26.803Z,1018.67
2016-09-29T01:58:26.753Z,1018.65
2016-09-29T01:59:26.705Z,1018.64
2016-09-29T02:00:26.665Z,1018.63
2016-09-29T02:01:26.613Z,1018.63
2016-09-29T02:02:26.562Z,1018.62
2016-09-29T02:03:26.518Z,1018.57
2016-09-29T02:04:26.478Z,1018.55
2016-09-29T02:05:26.423Z,1018.53
2016-09-29T02:06:26.580Z,1018.52
2016-09-29T02:07:26.532Z,1018.54
2016-09-29T02:08:26.289Z,1018.52
2016-09-29T02:09:26.238Z,1018.48
2016-09-29T02:10:26.192Z,1018.42
2016-09-29T02:11:26.142Z,1018.41
2016-09-29T02:12:26.092Z,1018.39
2016-09-29T02:13:26.049Z,1018.36
2016-09-29T02:14:26.200Z,1018.35
2016-09-29T02:15:25.949Z,1018.37
2016-09-29T02:16:25.910Z,1018.33
2016-09-29T02:17:25.861Z,1018.35
2016-09-29T02:18:25.818Z,1018.3
2016-09-29T02:19:25.762Z,1018.29
2016-09-29T02:20:25.728Z,1018.28
2016-09-29T02:21:25.675Z,1018.29
2016-09-29T02:22:25.623Z,1018.28
2016-09-29T02:23:25.581Z,1018.26
2016-09-29T02:24:25.535Z,1018.27
2016-09-29T02:25:25.482Z,1018.18
2016-09-29T02:26:25.435Z,1018.17
2016-09-29T02:27:25.390Z,1018.13
2016-09-29T02:28:25.346Z,1018.14
2016-09-29T02:29:25.294Z,1018.11
2016-09-29T02:30:25.247Z,1018.11
2016-09-29T02:31:25.215Z,1018.05
2016-09-29T02:32:25.352Z,1018.02
2016-09-29T02:33:25.108Z,1018.02
2016-09-29T02:34:25.075Z,1018.03
2016-09-29T02:35:25.014Z,1018.03
2016-09-29T02:36:24.966Z,1018.03
2016-09-29T02:37:24.921Z,1018.04
2016-09-29T02:38:24.869Z,1018
2016-09-29T02:39:24.823Z,1018.02
2016-09-29T02:40:24.781Z,1018.01
2016-09-29T02:41:24.735Z,1018.01
2016-09-29T02:42:24.676Z,1018.01
2016-09-29T02:43:24.629Z,1017.95
2016-09-29T02:44:24.585Z,1017.94
2016-09-29T02:45:24.536Z,1017.96
2016-09-29T02:46:24.494Z,1017.95
2016-09-29T02:47:24.448Z,1017.9
2016-09-29T02:48:24.596Z,1017.94
2016-09-29T02:49:24.370Z,1017.93
2016-09-29T02:50:24.303Z,1017.94
2016-09-29T02:51:24.257Z,1017.97
2016-09-29T02:52:24.220Z,1017.94
2016-09-29T02:53:24.361Z,1017.88
2016-09-29T02:54:24.110Z,1017.93
2016-09-29T02:55:24.062Z,1017.92
2016-09-29T02:56:24.224Z,1017.89
2016-09-29T02:57:24.177Z,1017.87
2016-09-29T02:58:23.924Z,1017.86
2016-09-29T02:59:23.879Z,1017.85
2016-09-29T03:00:23.834Z,1017.87
2016-09-29T03:01:23.984Z,1017.85
2016-09-29T03:02:23.733Z,1017.83
2016-09-29T03:03:23.888Z,1017.81
2016-09-29T03:04:23.837Z,1017.84
2016-09-29T03:05:23.587Z,1017.8
2016-09-29T03:06:23.549Z,1017.79
2016-09-29T03:07:23.497Z,1017.79
2016-09-29T03:08:23.493Z,1017.78
2016-09-29T03:09:23.401Z,1017.77
2016-09-29T03:10:23.553Z,1017.71
2016-09-29T03:11:23.307Z,1017.69
2016-09-29T03:12:23.257Z,1017.67
2016-09-29T03:13:23.209Z,1017.63
2016-09-29T03:14:23.167Z,1017.62
2016-09-29T03:15:23.115Z,1017.58
2016-09-29T03:16:23.067Z,1017.58
2016-09-29T03:17:23.021Z,1017.6
2016-09-29T03:18:22.977Z,1017.59
2016-09-29T03:19:22.926Z,1017.58
2016-09-29T03:20:22.880Z,1017.53
2016-09-29T03:21:22.878Z,1017.51
2016-09-29T03:22:22.860Z,1017.5
2016-09-29T03:23:22.795Z,1017.43
2016-09-29T03:24:22.816Z,1017.36
2016-09-29T03:25:22.639Z,1017.4
2016-09-29T03:26:22.593Z,1017.4
2016-09-29T03:27:22.549Z,1017.41
2016-09-29T03:28:22.499Z,1017.4
2016-09-29T03:29:22.452Z,1017.37
2016-09-29T03:30:22.397Z,1017.35
2016-09-29T03:31:22.356Z,1017.37
2016-09-29T03:32:22.310Z,1017.34
2016-09-29T03:33:22.260Z,1017.3
2016-09-29T03:34:22.415Z,1017.31
2016-09-29T03:35:22.369Z,1017.3
2016-09-29T03:36:22.319Z,1017.28
2016-09-29T03:37:22.274Z,1017.29
2016-09-29T03:38:22.025Z,1017.31
2016-09-29T03:39:21.977Z,1017.35
2016-09-29T03:40:21.931Z,1017.33
2016-09-29T03:41:21.878Z,1017.32
2016-09-29T03:42:21.833Z,1017.32
2016-09-29T03:43:21.787Z,1017.33
2016-09-29T03:44:21.757Z,1017.32
2016-09-29T03:45:21.689Z,1017.29
2016-09-29T03:46:21.643Z,1017.28
2016-09-29T03:47:21.595Z,1017.28
2016-09-29T03:48:21.545Z,1017.24
2016-09-29T03:49:21.502Z,1017.2
2016-09-29T03:50:21.454Z,1017.24
2016-09-29T03:51:21.405Z,1017.24
2016-09-29T03:52:21.558Z,1017.23
2016-09-29T03:53:21.307Z,1017.25
2016-09-29T03:54:21.261Z,1017.25
2016-09-29T03:55:21.215Z,1017.24
2016-09-29T03:56:21.174Z,1017.27
2016-09-29T03:57:21.118Z,1017.21
2016-09-29T03:58:21.072Z,1017.21
2016-09-29T03:59:21.064Z,1017.19
2016-09-29T04:00:20.974Z,1017.18
2016-09-29T04:01:20.969Z,1017.17
2016-09-29T04:02:20.877Z,1017.18
2016-09-29T04:03:20.837Z,1017.18
2016-09-29T04:04:20.786Z,1017.13
2016-09-29T04:05:20.748Z,1017.19
2016-09-29T04:06:20.688Z,1017.17
2016-09-29T04:07:20.648Z,1017.21
2016-09-29T04:08:20.597Z,1017.13
2016-09-29T04:09:20.551Z,1017.11
2016-09-29T04:10:20.497Z,1017.11
2016-09-29T04:11:20.451Z,1017.09
2016-09-29T04:12:20.408Z,1017.05
2016-09-29T04:13:20.556Z,1017.1
2016-09-29T04:14:20.306Z,1017.08
2016-09-29T04:15:20.267Z,1017.05
2016-09-29T04:16:20.215Z,1017.04
2016-09-29T04:17:20.164Z,1017
2016-09-29T04:18:20.117Z,1016.99
2016-09-29T04:19:20.074Z,1017
2016-09-29T04:20:20.023Z,1017
2016-09-29T04:21:19.971Z,1017.02
2016-09-29T04:22:20.135Z,1016.99
2016-09-29T04:23:19.874Z,1016.99
2016-09-29T04:24:19.827Z,1016.94
2016-09-29T04:25:19.782Z,1016.94
2016-09-29T04:26:19.740Z,1016.93
2016-09-29T04:27:19.687Z,1016.89
2016-09-29T04:28:19.638Z,1016.9
2016-09-29T04:29:19.595Z,1016.84
2016-09-29T04:30:19.546Z,1016.87
2016-09-29T04:31:19.500Z,1016.87
2016-09-29T04:32:19.450Z,1016.84
2016-09-29T04:33:19.408Z,1016.84
2016-09-29T04:34:19.355Z,1016.83
2016-09-29T04:35:19.334Z,1016.83
2016-09-29T04:36:19.258Z,1016.79
2016-09-29T04:37:19.215Z,1016.77
2016-09-29T04:38:19.163Z,1016.8
2016-09-29T04:39:19.115Z,1016.8
2016-09-29T04:40:19.069Z,1016.76
2016-09-29T04:41:19.029Z,1016.72
2016-09-29T04:42:18.972Z,1016.73
2016-09-29T04:43:18.921Z,1016.71
2016-09-29T04:44:18.877Z,1016.66
2016-09-29T04:45:18.835Z,1016.68
2016-09-29T04:46:18.783Z,1016.7
2016-09-29T04:47:18.728Z,1016.68
2016-09-29T04:48:18.685Z,1016.69
2016-09-29T04:49:18.643Z,1016.64
2016-09-29T04:50:18.589Z,1016.7
2016-09-29T04:51:18.540Z,1016.65
2016-09-29T04:52:18.562Z,1016.68
2016-09-29T04:53:18.445Z,1016.64
2016-09-29T04:54:18.600Z,1016.64
2016-09-29T04:55:18.354Z,1016.64
2016-09-29T04:56:18.299Z,1016.61
2016-09-29T04:57:18.257Z,1016.62
2016-09-29T04:58:18.209Z,1016.56
2016-09-29T04:59:18.161Z,1016.57
2016-09-29T05:00:18.119Z,1016.58
2016-09-29T05:01:18.069Z,1016.5
2016-09-29T05:02:18.014Z,1016.54
2016-09-29T05:03:17.976Z,1016.48
2016-09-29T05:04:17.921Z,1016.48
2016-09-29T05:05:17.871Z,1016.43
2016-09-29T05:06:17.825Z,1016.39
2016-09-29T05:07:17.773Z,1016.39
2016-09-29T05:08:17.729Z,1016.34
2016-09-29T05:09:17.686Z,1016.34
2016-09-29T05:10:17.636Z,1016.37
2016-09-29T05:11:17.595Z,1016.36
2016-09-29T05:12:17.539Z,1016.31
2016-09-29T05:13:17.487Z,1016.28
2016-09-29T05:14:17.440Z,1016.26
2016-09-29T05:15:17.392Z,1016.23
2016-09-29T05:16:17.356Z,1016.27
2016-09-29T05:17:17.302Z,1016.24
2016-09-29T05:18:17.247Z,1016.24
2016-09-29T05:19:17.202Z,1016.24
2016-09-29T05:20:17.154Z,1016.22
2016-09-29T05:21:17.106Z,1016.2
2016-09-29T05:22:17.057Z,1016.2
2016-09-29T05:23:17.006Z,1016.2
2016-09-29T05:24:16.962Z,1016.18
2016-09-29T05:25:16.910Z,1016.17
2016-09-29T05:26:16.879Z,1016.14
2016-09-29T05:27:16.823Z,1016.17
2016-09-29T05:28:16.976Z,1016.15
2016-09-29T05:29:16.719Z,1016.13
2016-09-29T05:30:16.672Z,1016.19
2016-09-29T05:31:16.627Z,1016.16
2016-09-29T05:32:16.575Z,1016.11
2016-09-29T05:33:16.536Z,1016.13
2016-09-29T05:34:16.483Z,1016.11
2016-09-29T05:35:16.436Z,1016.09
2016-09-29T05:36:16.383Z,1016.08
2016-09-29T05:37:16.340Z,1016.09
2016-09-29T05:38:16.287Z,1016.07
2016-09-29T05:39:16.239Z,1016.06
2016-09-29T05:40:16.192Z,1016.07
2016-09-29T05:41:16.152Z,1016.07
2016-09-29T05:42:16.098Z,1016.08
2016-09-29T05:43:16.049Z,1016.1
2016-09-29T05:44:16.007Z,1016.07
2016-09-29T05:45:15.957Z,1016.08
2016-09-29T05:46:15.900Z,1016.1
2016-09-29T05:47:15.858Z,1016.12
2016-09-29T05:48:15.806Z,1016.12
2016-09-29T05:49:15.762Z,1016.13
2016-09-29T05:50:15.718Z,1016.15
2016-09-29T05:51:15.715Z,1016.13
2016-09-29T05:52:15.617Z,1016.11
2016-09-29T05:53:15.567Z,1016.09
2016-09-29T05:54:15.513Z,1016.11
2016-09-29T05:55:15.471Z,1016.09
2016-09-29T05:56:15.622Z,1016.09
2016-09-29T05:57:15.374Z,1016.05
2016-09-29T05:58:15.330Z,1016.06
2016-09-29T05:59:15.278Z,1016.04
2016-09-29T06:00:15.227Z,1015.97
2016-09-29T06:01:15.181Z,1015.96
2016-09-29T06:02:15.136Z,1015.98
2016-09-29T06:03:15.082Z,1015.96
2016-09-29T06:04:15.041Z,1016.02
2016-09-29T06:05:14.993Z,1015.99
2016-09-29T06:06:14.957Z,1015.97
2016-09-29T06:07:15.093Z,1015.95
2016-09-29T06:08:14.843Z,1015.95
2016-09-29T06:09:14.797Z,1015.96
2016-09-29T06:10:14.751Z,1015.92
2016-09-29T06:11:14.702Z,1015.95
2016-09-29T06:12:14.661Z,1015.91
2016-09-29T06:13:14.599Z,1015.96
2016-09-29T06:14:14.561Z,1015.97
2016-09-29T06:15:14.512Z,1015.96
2016-09-29T06:16:14.467Z,1015.94
2016-09-29T06:17:14.412Z,1015.97
2016-09-29T06:18:14.364Z,1015.9
2016-09-29T06:19:14.316Z,1015.93
2016-09-29T06:20:14.274Z,1015.92
2016-09-29T06:21:14.226Z,1015.9
2016-09-29T06:22:14.228Z,1015.91
2016-09-29T06:23:14.176Z,1015.88
2016-09-29T06:24:14.107Z,1015.84
2016-09-29T06:25:14.037Z,1015.83
2016-09-29T06:26:13.987Z,1015.81
2016-09-29T06:27:13.937Z,1015.74
2016-09-29T06:28:13.881Z,1015.79
2016-09-29T06:29:13.837Z,1015.76
2016-09-29T06:30:13.788Z,1015.8
2016-09-29T06:31:13.745Z,1015.8
2016-09-29T06:32:13.691Z,1015.76
2016-09-29T06:33:13.649Z,1015.76
2016-09-29T06:34:13.596Z,1015.77
2016-09-29T06:35:13.551Z,1015.75
2016-09-29T06:36:13.500Z,1015.74
2016-09-29T06:37:13.451Z,1015.7
2016-09-29T06:38:13.407Z,1015.7
2016-09-29T06:39:13.354Z,1015.66
2016-09-29T06:40:13.315Z,1015.71
2016-09-29T06:41:13.260Z,1015.67
2016-09-29T06:42:13.214Z,1015.71
2016-09-29T06:43:13.161Z,1015.68
2016-09-29T06:44:13.117Z,1015.67
2016-09-29T06:45:13.071Z,1015.67
2016-09-29T06:46:13.020Z,1015.65
2016-09-29T06:47:13.179Z,1015.67
2016-09-29T06:48:12.924Z,1015.71
2016-09-29T06:49:12.890Z,1015.72
2016-09-29T06:50:12.829Z,1015.76
2016-09-29T06:51:12.783Z,1015.7
2016-09-29T06:52:12.733Z,1015.7
2016-09-29T06:53:12.689Z,1015.68
2016-09-29T06:54:12.648Z,1015.72
2016-09-29T06:55:12.589Z,1015.7
2016-09-29T06:56:12.545Z,1015.69
2016-09-29T06:57:12.505Z,1015.74
2016-09-29T06:58:12.452Z,1015.76
2016-09-29T06:59:12.400Z,1015.74
2016-09-29T07:00:12.553Z,1015.74
2016-09-29T07:01:12.311Z,1015.76
2016-09-29T07:02:12.257Z,1015.7
2016-09-29T07:03:12.215Z,1015.75
2016-09-29T07:04:12.172Z,1015.7
2016-09-29T07:05:12.142Z,1015.71
2016-09-29T07:06:12.099Z,1015.7
2016-09-29T07:07:12.027Z,1015.7
2016-09-29T07:08:11.980Z,1015.71
2016-09-29T07:09:12.537Z,1015.65
2016-09-29T07:10:12.080Z,1015.66
2016-09-29T07:11:11.828Z,1015.67
2016-09-29T07:12:11.792Z,1015.67
2016-09-29T07:13:11.733Z,1015.63
2016-09-29T07:14:11.689Z,1015.68
2016-09-29T07:15:11.641Z,1015.67
2016-09-29T07:16:11.597Z,1015.64
2016-09-29T07:17:11.548Z,1015.67
2016-09-29T07:18:11.497Z,1015.61
2016-09-29T07:19:11.450Z,1015.65
2016-09-29T07:20:11.402Z,1015.59
2016-09-29T07:21:11.355Z,1015.64
2016-09-29T07:22:11.306Z,1015.64
2016-09-29T07:23:11.297Z,1015.59
2016-09-29T07:24:11.225Z,1015.63
2016-09-29T07:25:11.170Z,1015.57
2016-09-29T07:26:11.151Z,1015.58
2016-09-29T07:27:11.073Z,1015.55
2016-09-29T07:28:11.041Z,1015.53
2016-09-29T07:29:11.042Z,1015.51
2016-09-29T07:30:11.097Z,1015.52
2016-09-29T07:31:10.887Z,1015.52
2016-09-29T07:32:10.921Z,1015.5
2016-09-29T07:33:10.796Z,1015.48
2016-09-29T07:34:10.748Z,1015.49
2016-09-29T07:35:10.705Z,1015.47
2016-09-29T07:36:10.662Z,1015.46
2016-09-29T07:37:10.599Z,1015.47
2016-09-29T07:38:10.769Z,1015.49
2016-09-29T07:39:10.513Z,1015.49
2016-09-29T07:40:10.463Z,1015.49
2016-09-29T07:41:10.425Z,1015.45
2016-09-29T07:42:10.369Z,1015.45
2016-09-29T07:43:10.327Z,1015.42
2016-09-29T07:44:10.278Z,1015.41
2016-09-29T07:45:10.237Z,1015.42
2016-09-29T07:46:10.180Z,1015.48
2016-09-29T07:47:10.337Z,1015.49
2016-09-29T07:48:10.089Z,1015.47
2016-09-29T07:49:10.036Z,1015.49
2016-09-29T07:50:10.007Z,1015.44
2016-09-29T07:51:09.944Z,1015.46
2016-09-29T07:52:09.902Z,1015.45
2016-09-29T07:53:09.869Z,1015.41
2016-09-29T07:54:09.850Z,1015.46
2016-09-29T07:55:09.775Z,1015.42
2016-09-29T07:56:09.774Z,1015.4
2016-09-29T07:57:09.695Z,1015.43
2016-09-29T07:58:09.880Z,1015.39
2016-09-29T07:59:09.676Z,1015.37
2016-09-29T08:00:09.558Z,1015.36
2016-09-29T08:01:09.546Z,1015.32
2016-09-29T08:02:09.439Z,1015.37
2016-09-29T08:03:09.389Z,1015.35
2016-09-29T08:04:09.342Z,1015.33
2016-09-29T08:05:09.507Z,1015.32
2016-09-29T08:06:09.251Z,1015.21
2016-09-29T08:07:09.201Z,1015.28
2016-09-29T08:08:09.171Z,1015.19
2016-09-29T08:09:09.123Z,1015.18
2016-09-29T08:10:09.064Z,1015.19
2016-09-29T08:11:09.038Z,1015.17
2016-09-29T08:12:08.972Z,1015.16
2016-09-29T08:13:08.965Z,1015.19
2016-09-29T08:14:08.873Z,1015.17
2016-09-29T08:15:08.826Z,1015.16
2016-09-29T08:16:08.852Z,1015.19
2016-09-29T08:17:08.740Z,1015.17
2016-09-29T08:18:09.107Z,1015.14
2016-09-29T08:19:08.852Z,1015.15
2016-09-29T08:20:08.597Z,1015.18
2016-09-29T08:21:08.579Z,1015.21
2016-09-29T08:22:08.506Z,1015.19
2016-09-29T08:23:08.455Z,1015.21
2016-09-29T08:24:08.483Z,1015.13
2016-09-29T08:25:08.366Z,1015.15
2016-09-29T08:26:09.530Z,1015.11
2016-09-29T08:27:08.277Z,1015.08
2016-09-29T08:28:08.221Z,1015.06
2016-09-29T08:29:08.196Z,1015.1
2016-09-29T08:30:08.126Z,1015.1
2016-09-29T08:31:08.088Z,1015.13
2016-09-29T08:32:08.042Z,1015.11
2016-09-29T08:33:08.006Z,1015.06
2016-09-29T08:34:07.960Z,1015.07
2016-09-29T08:35:07.897Z,1015.06
2016-09-29T08:36:07.854Z,1015.05
2016-09-29T08:37:07.827Z,1015.05
2016-09-29T08:38:07.761Z,1014.97
2016-09-29T08:39:07.717Z,1014.95
2016-09-29T08:40:07.662Z,1014.95
2016-09-29T08:41:07.622Z,1014.87
2016-09-29T08:42:07.570Z,1014.9
2016-09-29T08:43:07.543Z,1014.87
2016-09-29T08:44:07.473Z,1014.89
2016-09-29T08:45:07.439Z,1014.8
2016-09-29T08:46:07.442Z,1014.82
2016-09-29T08:47:07.333Z,1014.82
2016-09-29T08:48:07.306Z,1014.8
2016-09-29T08:49:07.250Z,1014.79
2016-09-29T08:50:07.207Z,1014.82
2016-09-29T08:51:07.153Z,1014.76
2016-09-29T08:52:07.115Z,1014.78
2016-09-29T08:53:07.079Z,1014.72
2016-09-29T08:54:07.014Z,1014.76
2016-09-29T08:55:06.970Z,1014.71
2016-09-29T08:56:06.921Z,1014.74
2016-09-29T08:57:06.872Z,1014.66
2016-09-29T08:58:06.841Z,1014.68
2016-09-29T08:59:06.808Z,1014.66
2016-09-29T09:00:06.739Z,1014.58
2016-09-29T09:01:06.726Z,1014.6
2016-09-29T09:02:06.656Z,1014.57
2016-09-29T09:03:06.632Z,1014.6
2016-09-29T09:04:06.564Z,1014.55
2016-09-29T09:05:06.508Z,1014.61
2016-09-29T09:06:06.663Z,1014.54
2016-09-29T09:07:06.418Z,1014.56
2016-09-29T09:08:06.362Z,1014.55
2016-09-29T09:09:06.388Z,1014.55
2016-09-29T09:10:06.268Z,1014.58
2016-09-29T09:11:06.234Z,1014.55
2016-09-29T09:12:06.179Z,1014.5
2016-09-29T09:13:06.328Z,1014.48
2016-09-29T09:14:06.094Z,1014.52
2016-09-29T09:15:06.046Z,1014.52
2016-09-29T09:16:06.004Z,1014.42
2016-09-29T09:17:05.948Z,1014.46
2016-09-29T09:18:05.903Z,1014.49
2016-09-29T09:19:06.227Z,1014.49
2016-09-29T09:20:05.806Z,1014.45
2016-09-29T09:21:05.762Z,1014.47
2016-09-29T09:22:05.721Z,1014.4
2016-09-29T09:23:05.766Z,1014.41
2016-09-29T09:24:05.655Z,1014.42
2016-09-29T09:25:05.579Z,1014.45
2016-09-29T09:26:05.551Z,1014.42
2016-09-29T09:27:05.615Z,1014.31
2016-09-29T09:28:05.449Z,1014.37
2016-09-29T09:29:05.402Z,1014.43
2016-09-29T09:30:05.350Z,1014.34
2016-09-29T09:31:05.312Z,1014.32
2016-09-29T09:32:05.251Z,1014.34
2016-09-29T09:33:05.221Z,1014.32
2016-09-29T09:34:05.162Z,1014.39
2016-09-29T09:35:05.123Z,1014.34
2016-09-29T09:36:05.079Z,1014.38
2016-09-29T09:37:05.026Z,1014.41
2016-09-29T09:38:04.986Z,1014.29
2016-09-29T09:39:04.932Z,1014.27
2016-09-29T09:40:04.891Z,1014.25
2016-09-29T09:41:04.862Z,1014.16
2016-09-29T09:42:04.792Z,1014.26
2016-09-29T09:43:08.133Z,1014.19
2016-09-29T09:44:04.857Z,1014.2
2016-09-29T09:45:04.666Z,1014.14
2016-09-29T09:46:04.613Z,1014.23
2016-09-29T09:47:04.572Z,1013.97
2016-09-29T09:48:04.524Z,1014.15
2016-09-29T09:49:04.473Z,1014.01
2016-09-29T09:50:04.429Z,1014.12
2016-09-29T09:51:04.384Z,1014.09
2016-09-29T09:52:04.348Z,1014.12
2016-09-29T09:53:04.298Z,1014.03
2016-09-29T09:54:04.269Z,1014.03
2016-09-29T09:55:04.261Z,1013.97
2016-09-29T09:56:04.167Z,1014.01
2016-09-29T09:57:04.116Z,1013.97
2016-09-29T09:58:04.146Z,1014.04
2016-09-29T09:59:04.038Z,1013.85
2016-09-29T10:00:03.985Z,1013.92
2016-09-29T10:01:03.933Z,1013.97
2016-09-29T10:02:04.143Z,1013.92
2016-09-29T10:03:03.840Z,1013.87
2016-09-29T10:04:03.797Z,1013.79
2016-09-29T10:05:03.761Z,1013.8
2016-09-29T10:06:03.709Z,1013.78
2016-09-29T10:07:03.659Z,1013.79
2016-09-29T10:08:03.616Z,1013.78
2016-09-29T10:09:03.579Z,1013.7
2016-09-29T10:10:03.772Z,1013.73
2016-09-29T10:11:03.480Z,1013.69
2016-09-29T10:12:03.442Z,1013.68
2016-09-29T10:13:03.388Z,1013.63
2016-09-29T10:14:03.347Z,1013.65
2016-09-29T10:15:03.304Z,1013.67
2016-09-29T10:16:04.257Z,1013.58
2016-09-29T10:17:03.231Z,1013.57
2016-09-29T10:18:03.266Z,1013.53
2016-09-29T10:19:03.117Z,1013.54
2016-09-29T10:20:03.110Z,1013.53
2016-09-29T10:21:03.025Z,1013.55
2016-09-29T10:22:02.987Z,1013.57
2016-09-29T10:23:02.943Z,1013.54
2016-09-29T10:24:02.903Z,1013.55
2016-09-29T10:25:02.851Z,1013.51
2016-09-29T10:26:02.803Z,1013.43
2016-09-29T10:27:02.757Z,1013.55
2016-09-29T10:28:02.738Z,1013.44
2016-09-29T10:29:02.666Z,1013.36
2016-09-29T10:30:02.624Z,1013.44
2016-09-29T10:31:02.578Z,1013.43
2016-09-29T10:32:02.665Z,1013.44
2016-09-29T10:33:02.521Z,1013.47
2016-09-29T10:34:02.443Z,1013.45
2016-09-29T10:35:02.408Z,1013.37
2016-09-29T10:36:02.355Z,1013.3
2016-09-29T10:37:02.309Z,1013.38
2016-09-29T10:38:02.262Z,1013.37
2016-09-29T10:39:02.222Z,1013.29
2016-09-29T10:40:02.171Z,1013.32
2016-09-29T10:41:02.130Z,1013.34
2016-09-29T10:42:02.089Z,1013.37
2016-09-29T10:43:02.039Z,1013.25
2016-09-29T10:44:02.187Z,1013.27
2016-09-29T10:45:01.943Z,1013.36
2016-09-29T10:46:01.906Z,1013.32
2016-09-29T10:47:01.858Z,1013.27
2016-09-29T10:48:01.824Z,1013.31
2016-09-29T10:49:02.102Z,1013.2
2016-09-29T10:50:01.720Z,1013.22
2016-09-29T10:51:01.686Z,1013.15
2016-09-29T10:52:01.658Z,1013.15
2016-09-29T10:53:01.603Z,1013.14
2016-09-29T10:54:01.549Z,1013.16
2016-09-29T10:55:01.497Z,1013.19
2016-09-29T10:56:01.450Z,1013.21
2016-09-29T10:57:01.411Z,1013.13
2016-09-29T10:58:01.369Z,1013.19
2016-09-29T10:59:01.333Z,1013.1
2016-09-29T11:00:01.393Z,1013.12
2016-09-29T11:01:01.238Z,1013.14
2016-09-29T11:02:01.321Z,1013.16
2016-09-29T11:03:01.360Z,1013.15
2016-09-29T11:04:01.113Z,1013.21
2016-09-29T11:05:01.057Z,1013.18
2016-09-29T11:06:01.011Z,1013.1
2016-09-29T11:07:00.978Z,1013.13
2016-09-29T11:08:00.933Z,1013.15
2016-09-29T11:09:00.893Z,1013.14
2016-09-29T11:10:00.832Z,1013.07
2016-09-29T11:11:00.840Z,1013.1
2016-09-29T11:12:00.755Z,1013.15
2016-09-29T11:13:00.705Z,1013.06
2016-09-29T11:14:00.662Z,1013.06
2016-09-29T11:15:00.611Z,1013.04
2016-09-29T11:16:00.571Z,1013.06
2016-09-29T11:17:00.530Z,1013.04
2016-09-29T11:18:00.499Z,1012.99
2016-09-29T11:19:00.452Z,1013
2016-09-29T11:20:00.395Z,1012.93
2016-09-29T11:21:00.352Z,1012.95
2016-09-29T11:22:00.369Z,1012.92
2016-09-29T11:23:00.262Z,1012.91
2016-09-29T11:24:00.214Z,1012.96
2016-09-29T11:25:00.168Z,1012.89
2016-09-29T11:26:00.129Z,1012.96
2016-09-29T11:27:00.075Z,1012.89
2016-09-29T11:28:00.041Z,1012.87
2016-09-29T11:28:59.992Z,1012.85
2016-09-29T11:29:59.941Z,1012.75
2016-09-29T11:30:59.904Z,1012.77
2016-09-29T11:31:59.862Z,1012.79
2016-09-29T11:32:59.818Z,1012.78
2016-09-29T11:33:59.765Z,1012.8
2016-09-29T11:34:59.757Z,1012.74
2016-09-29T11:35:59.678Z,1012.73
2016-09-29T11:36:59.650Z,1012.76
2016-09-29T11:37:59.609Z,1012.73
2016-09-29T11:38:59.558Z,1012.67
2016-09-29T11:39:59.530Z,1012.67
2016-09-29T11:40:59.468Z,1012.66
2016-09-29T11:41:59.425Z,1012.62
2016-09-29T11:42:59.373Z,1012.59
2016-09-29T11:43:59.328Z,1012.52
2016-09-29T11:44:59.284Z,1012.52
2016-09-29T11:45:59.241Z,1012.49
2016-09-29T11:46:59.249Z,1012.5
2016-09-29T11:47:59.170Z,1012.5
2016-09-29T11:48:59.147Z,1012.41
2016-09-29T11:49:59.129Z,1012.35
2016-09-29T11:50:59.033Z,1012.34
2016-09-29T11:51:58.976Z,1012.31
2016-09-29T11:52:58.938Z,1012.25
2016-09-29T11:53:58.890Z,1012.26
2016-09-29T11:54:58.847Z,1012.27
2016-09-29T11:55:58.805Z,1012.26
2016-09-29T11:56:58.796Z,1012.26
2016-09-29T11:57:58.724Z,1012.34
2016-09-29T11:58:58.676Z,1012.31
2016-09-29T11:59:58.626Z,1012.31
2016-09-29T12:00:58.583Z,1012.26
2016-09-29T12:01:58.542Z,1012.25
2016-09-29T12:02:58.495Z,1012.26
2016-09-29T12:03:58.464Z,1012.22
2016-09-29T12:04:58.411Z,1012.2
2016-09-29T12:05:58.573Z,1012.28
2016-09-29T12:06:58.346Z,1012.13
2016-09-29T12:07:58.282Z,1012.23